createdAt,value
2018-02-04T00:01:52.020Z,19.85
2018-02-04T00:04:20.278Z,20.40
2018-02-04T00:06:49.306Z,18.92
2018-02-04T00:09:17.581Z,22.92
2018-02-04T00:11:45.838Z,23.17
2018-02-04T00:14:14.101Z,23.40
2018-02-04T00:16:43.942Z,22.77
2018-02-04T00:19:12.218Z,22.60
2018-02-04T00:21:40.477Z,25.35
2018-02-04T00:24:08.742Z,22.65
2018-02-04T00:26:37.771Z,21.42
2018-02-04T00:29:06.043Z,23.98
2018-02-04T00:31:34.301Z,22.52
2018-02-04T00:34:02.575Z,21.65
2018-02-04T00:36:30.859Z,21.27
2018-02-04T00:38:59.154Z,21.80
2018-02-04T00:41:27.400Z,21.58
2018-02-04T00:43:55.670Z,20.00
2018-02-04T00:46:24.687Z,22.60
2018-02-04T00:48:52.955Z,21.92
2018-02-04T00:51:21.206Z,21.62
2018-02-04T00:53:50.238Z,23.10
2018-02-04T00:56:18.504Z,22.75
2018-02-04T00:58:46.807Z,24.17
2018-02-04T01:01:15.069Z,24.58
2018-02-04T01:03:43.325Z,22.55
2018-02-04T01:06:11.582Z,25.25
2018-02-04T01:08:40.604Z,23.70
2018-02-04T01:11:08.877Z,23.80
2018-02-04T01:13:37.126Z,19.45
2018-02-04T01:16:06.168Z,17.12
2018-02-04T01:18:34.427Z,17.40
2018-02-04T01:21:02.689Z,17.87
2018-02-04T01:23:30.950Z,22.25
2018-02-04T01:25:59.985Z,24.48
2018-02-04T01:28:28.244Z,22.00
2018-02-04T01:30:56.510Z,25.73
2018-02-04T01:33:24.766Z,25.05
2018-02-04T01:35:53.806Z,25.35
2018-02-04T01:38:22.070Z,25.45
2018-02-04T01:40:50.658Z,25.95
2018-02-04T01:43:19.017Z,26.42
2018-02-04T01:45:47.426Z,27.83
2018-02-04T01:48:15.855Z,27.33
2018-02-04T01:50:44.870Z,28.25
2018-02-04T01:53:13.149Z,27.58
2018-02-04T01:55:41.406Z,27.90
2018-02-04T01:58:09.674Z,24.92
2018-02-04T02:00:38.712Z,24.35
2018-02-04T02:03:06.996Z,20.58
2018-02-04T02:05:35.243Z,23.10
2018-02-04T02:08:03.519Z,22.42
2018-02-04T02:10:31.791Z,22.02
2018-02-04T02:13:00.151Z,19.45
2018-02-04T02:15:29.175Z,20.12
2018-02-04T02:17:57.449Z,18.37
2018-02-04T02:20:25.709Z,18.00
2018-02-04T02:22:53.976Z,17.33
2018-02-04T02:25:23.025Z,15.60
2018-02-04T02:27:51.302Z,17.08
2018-02-04T02:30:19.564Z,14.43
2018-02-04T02:32:47.825Z,15.90
2018-02-04T02:35:16.094Z,13.55
2018-02-04T02:37:44.366Z,15.23
2018-02-04T02:40:12.629Z,15.35
2018-02-04T02:42:40.887Z,16.00
2018-02-04T02:45:09.956Z,13.52
2018-02-04T02:47:38.228Z,14.55
2018-02-04T02:50:06.494Z,16.02
2018-02-04T02:52:34.760Z,16.70
2018-02-04T02:55:03.033Z,14.68
2018-02-04T02:57:31.299Z,15.90
2018-02-04T02:59:59.565Z,14.98
2018-02-04T03:02:27.829Z,15.20
2018-02-04T03:04:56.103Z,16.23
2018-02-04T03:07:24.371Z,16.75
2018-02-04T03:09:53.401Z,13.68
2018-02-04T03:12:21.673Z,15.52
2018-02-04T03:14:49.942Z,17.10
2018-02-04T03:17:18.272Z,16.42
2018-02-04T03:19:46.522Z,17.02
2018-02-04T03:22:14.807Z,15.82
2018-02-04T03:24:43.831Z,16.48
2018-02-04T03:27:12.874Z,15.50
2018-02-04T03:29:41.139Z,13.80
2018-02-04T03:32:09.415Z,14.05
2018-02-04T03:34:37.671Z,14.13
2018-02-04T03:37:05.948Z,15.05
2018-02-04T03:39:34.207Z,16.73
2018-02-04T03:42:03.242Z,18.65
2018-02-04T03:44:31.500Z,16.65
2018-02-04T03:46:59.770Z,16.95
2018-02-04T03:49:28.036Z,16.27
2018-02-04T03:51:56.303Z,17.65
2018-02-04T03:54:25.335Z,17.77
2018-02-04T03:56:53.621Z,14.50
2018-02-04T03:59:21.871Z,15.88
2018-02-04T04:01:50.158Z,14.40
2018-02-04T04:04:18.412Z,15.27
2018-02-04T04:06:46.681Z,12.73
2018-02-04T04:09:15.707Z,14.38
2018-02-04T04:11:43.987Z,15.00
2018-02-04T04:14:12.248Z,14.20
2018-02-04T04:16:40.527Z,16.20
2018-02-04T04:19:08.791Z,13.07
2018-02-04T04:21:37.051Z,14.70
2018-02-04T04:24:06.084Z,15.38
2018-02-04T04:26:34.355Z,14.85
2018-02-04T04:29:02.625Z,13.20
2018-02-04T04:31:30.888Z,14.38
2018-02-04T04:33:59.155Z,12.18
2018-02-04T04:36:27.436Z,15.57
2018-02-04T04:38:55.694Z,13.95
2018-02-04T04:41:23.962Z,13.88
2018-02-04T04:43:52.999Z,13.60
2018-02-04T04:46:21.257Z,14.23
2018-02-04T04:48:49.528Z,11.77
2018-02-04T04:51:17.798Z,12.75
2018-02-04T04:53:46.067Z,11.55
2018-02-04T04:56:15.108Z,13.20
2018-02-04T04:58:43.377Z,13.23
2018-02-04T05:01:11.640Z,11.95
2018-02-04T05:03:39.937Z,11.52
2018-02-04T05:06:08.188Z,12.30
2018-02-04T05:08:36.439Z,13.15
2018-02-04T05:11:05.471Z,13.48
2018-02-04T05:13:33.739Z,12.45
2018-02-04T05:16:02.049Z,13.00
2018-02-04T05:18:30.303Z,13.45
2018-02-04T05:20:58.576Z,12.45
2018-02-04T05:23:26.835Z,12.50
2018-02-04T05:25:55.107Z,12.55
2018-02-04T05:28:23.376Z,12.50
2018-02-04T05:30:51.661Z,12.98
2018-02-04T05:33:19.943Z,13.10
2018-02-04T05:35:48.222Z,11.70
2018-02-04T05:38:16.485Z,12.60
2018-02-04T05:40:44.752Z,13.90
2018-02-04T05:43:13.069Z,12.85
2018-02-04T05:45:42.107Z,12.50
2018-02-04T05:48:11.131Z,14.10
2018-02-04T05:50:39.448Z,13.60
2018-02-04T05:53:07.748Z,14.40
2018-02-04T05:55:36.833Z,15.25
2018-02-04T05:58:05.122Z,16.00
2018-02-04T06:00:34.197Z,15.30
2018-02-04T06:03:02.509Z,14.95
2018-02-04T06:05:30.783Z,16.02
2018-02-04T06:07:59.082Z,15.38
2018-02-04T06:10:27.408Z,15.48
2018-02-04T06:12:55.716Z,16.05
2018-02-04T06:15:24.021Z,15.52
2018-02-04T06:17:52.325Z,14.52
2018-02-04T06:20:20.646Z,16.37
2018-02-04T06:22:48.935Z,14.80
2018-02-04T06:25:17.241Z,15.35
2018-02-04T06:27:45.531Z,16.75
2018-02-04T06:30:13.953Z,16.05
2018-02-04T06:32:42.294Z,17.77
2018-02-04T06:35:10.609Z,16.00
2018-02-04T06:37:38.932Z,17.90
2018-02-04T06:40:07.249Z,17.50
2018-02-04T06:42:36.312Z,19.35
2018-02-04T06:45:04.629Z,16.20
2018-02-04T06:47:32.930Z,16.37
2018-02-04T06:50:01.248Z,18.70
2018-02-04T06:52:29.554Z,19.95
2018-02-04T06:54:58.619Z,17.70
2018-02-04T06:57:26.918Z,14.82
2018-02-04T06:59:55.992Z,17.17
2018-02-04T07:02:24.278Z,17.08
2018-02-04T07:04:53.336Z,15.98
2018-02-04T07:07:21.634Z,19.20
2018-02-04T07:09:49.928Z,17.65
2018-02-04T07:12:18.254Z,15.13
2018-02-04T07:14:46.533Z,19.37
2018-02-04T07:17:14.811Z,18.98
2018-02-04T07:19:43.083Z,18.70
2018-02-04T07:22:11.341Z,19.20
2018-02-04T07:24:39.615Z,19.40
2018-02-04T07:27:07.868Z,21.75
2018-02-04T07:29:36.905Z,19.27
2018-02-04T07:32:05.171Z,24.45
2018-02-04T07:34:33.440Z,21.00
2018-02-04T07:37:01.731Z,17.10
2018-02-04T07:39:30.144Z,21.55
2018-02-04T07:41:58.477Z,19.33
2018-02-04T07:44:26.809Z,18.77
2018-02-04T07:46:55.163Z,22.27
2018-02-04T07:49:23.495Z,21.42
2018-02-04T07:51:51.845Z,19.62
2018-02-04T07:54:20.163Z,19.65
2018-02-04T07:56:48.562Z,21.95
2018-02-04T07:59:16.894Z,26.60
2018-02-04T08:01:45.240Z,27.58
2018-02-04T08:04:13.565Z,27.17
2018-02-04T08:06:41.886Z,26.40
2018-02-04T08:09:10.202Z,24.80
2018-02-04T08:11:38.558Z,23.85
2018-02-04T08:14:06.878Z,24.90
2018-02-04T08:16:35.207Z,24.25
2018-02-04T08:19:03.527Z,24.77
2018-02-04T08:21:31.848Z,21.92
2018-02-04T08:24:00.203Z,19.85
2018-02-04T08:26:28.574Z,19.20
2018-02-04T08:28:56.892Z,17.67
2018-02-04T08:31:25.236Z,19.75
2018-02-04T08:33:53.570Z,17.95
2018-02-04T08:36:22.650Z,16.70
2018-02-04T08:38:51.021Z,15.13
2018-02-04T08:41:19.358Z,16.15
2018-02-04T08:43:47.726Z,14.35
2018-02-04T08:46:16.067Z,14.30
2018-02-04T08:48:45.144Z,14.07
2018-02-04T08:51:13.558Z,14.13
2018-02-04T08:53:41.902Z,12.80
2018-02-04T08:56:10.243Z,14.48
2018-02-04T08:58:38.581Z,14.30
2018-02-04T09:01:07.662Z,15.55
2018-02-04T09:03:36.739Z,15.10
2018-02-04T09:06:05.072Z,14.77
2018-02-04T09:08:33.397Z,14.05
2018-02-04T09:11:01.721Z,13.70
2018-02-04T09:13:30.070Z,12.57
2018-02-04T09:15:59.608Z,13.90
2018-02-04T09:18:27.985Z,14.77
2018-02-04T09:20:56.311Z,13.32
2018-02-04T09:23:24.680Z,14.20
2018-02-04T09:25:53.006Z,11.95
2018-02-04T09:28:21.405Z,15.00
2018-02-04T09:30:49.716Z,15.30
2018-02-04T09:33:18.066Z,15.00
2018-02-04T09:35:46.406Z,13.57
2018-02-04T09:38:15.468Z,16.55
2018-02-04T09:40:43.938Z,14.40
2018-02-04T09:43:12.273Z,12.80
2018-02-04T09:45:40.627Z,16.85
2018-02-04T09:48:09.699Z,18.23
2018-02-04T09:50:37.998Z,29.20
2018-02-04T09:53:07.108Z,46.37
2018-02-04T09:55:36.250Z,32.40
2018-02-04T09:58:05.299Z,28.07
2018-02-04T10:00:34.352Z,22.83
2018-02-04T10:03:02.628Z,22.35
2018-02-04T10:05:30.886Z,20.42
2018-02-04T10:07:59.162Z,15.40
2018-02-04T10:10:27.428Z,14.02
2018-02-04T10:12:55.698Z,13.85
2018-02-04T10:15:23.958Z,12.15
2018-02-04T10:17:52.219Z,15.90
2018-02-04T10:20:21.248Z,13.20
2018-02-04T10:22:49.510Z,13.23
2018-02-04T10:25:17.776Z,10.63
2018-02-04T10:27:46.042Z,8.10
2018-02-04T10:30:15.072Z,10.55
2018-02-04T10:32:43.325Z,9.93
2018-02-04T10:35:11.579Z,9.40
2018-02-04T10:37:40.599Z,7.37
2018-02-04T10:40:08.852Z,5.18
2018-02-04T10:42:37.882Z,4.47
2018-02-04T10:45:06.149Z,3.40
2018-02-04T10:47:34.400Z,4.30
2018-02-04T10:50:03.415Z,4.70
2018-02-04T10:52:31.667Z,5.07
2018-02-04T10:55:00.678Z,4.93
2018-02-04T10:57:28.929Z,4.93
2018-02-04T10:59:57.945Z,5.12
2018-02-04T11:02:26.198Z,5.25
2018-02-04T11:04:55.214Z,5.33
2018-02-04T11:07:23.462Z,5.50
2018-02-04T11:09:52.511Z,5.17
2018-02-04T11:12:20.925Z,4.90
2018-02-04T11:14:49.299Z,5.05
2018-02-04T11:17:17.715Z,3.55
2018-02-04T11:19:46.033Z,3.63
2018-02-04T11:22:14.351Z,3.70
2018-02-04T11:24:43.461Z,3.57
2018-02-04T11:27:12.518Z,3.17
2018-02-04T11:29:40.815Z,4.30
2018-02-04T11:32:21.257Z,3.60
2018-02-04T11:34:49.505Z,4.70
2018-02-04T11:37:17.747Z,4.70
2018-02-04T11:39:45.989Z,6.20
2018-02-04T11:42:14.243Z,4.90
2018-02-04T11:44:42.508Z,3.77
2018-02-04T11:47:10.810Z,7.50
2018-02-04T11:49:39.000Z,5.10
2018-02-04T11:52:07.261Z,2.83
2018-02-04T11:54:35.493Z,3.40
2018-02-04T11:57:03.740Z,2.67
2018-02-04T11:59:32.751Z,2.70
2018-02-04T12:02:01.007Z,2.73
2018-02-04T12:04:30.019Z,2.93
2018-02-04T12:06:58.265Z,3.10
2018-02-04T12:09:27.277Z,2.67
2018-02-04T12:11:55.558Z,2.43
2018-02-04T12:14:23.810Z,2.47
2018-02-04T12:16:52.822Z,2.93
2018-02-04T12:19:21.073Z,2.87
2018-02-04T12:21:49.329Z,3.00
2018-02-04T12:24:17.668Z,3.40
2018-02-04T12:26:45.920Z,2.93
2018-02-04T12:29:14.171Z,2.67
2018-02-04T12:31:42.445Z,2.53
2018-02-04T12:34:10.695Z,3.20
2018-02-04T12:36:38.933Z,3.60
2018-02-04T12:39:07.219Z,3.67
2018-02-04T12:41:35.504Z,3.30
2018-02-04T12:44:03.786Z,3.40
2018-02-04T12:46:32.029Z,4.87
2018-02-04T12:49:00.282Z,4.13
2018-02-04T12:51:29.294Z,4.77
2018-02-04T12:53:58.406Z,4.00
2018-02-04T12:56:26.645Z,3.67
2018-02-04T12:58:54.902Z,4.80
2018-02-04T13:01:23.139Z,4.27
2018-02-04T13:03:51.383Z,5.00
2018-02-04T13:06:19.643Z,3.67
2018-02-04T13:08:48.653Z,3.67
2018-02-04T13:11:17.666Z,5.03
2018-02-04T13:13:45.919Z,4.87
2018-02-04T13:16:14.925Z,4.67
2018-02-04T13:18:43.186Z,5.27
2018-02-04T13:21:12.195Z,4.72
2018-02-04T13:23:40.489Z,5.97
2018-02-04T13:26:08.743Z,4.78
2018-02-04T13:28:36.997Z,5.47
2018-02-04T13:31:06.014Z,6.00
2018-02-04T13:33:34.261Z,5.47
2018-02-04T13:36:03.280Z,7.35
2018-02-04T13:38:31.526Z,7.40
2018-02-04T13:40:59.779Z,6.10
2018-02-04T13:43:28.019Z,6.57
2018-02-04T13:45:56.284Z,7.82
2018-02-04T13:48:24.530Z,7.70
2018-02-04T13:50:52.781Z,7.18
2018-02-04T13:53:21.035Z,6.70
2018-02-04T13:55:49.299Z,9.23
2018-02-04T13:58:17.554Z,9.25
2018-02-04T14:00:45.816Z,10.20
2018-02-04T14:03:14.836Z,10.18
2018-02-04T14:05:43.145Z,10.57
2018-02-04T14:08:11.352Z,9.97
2018-02-04T14:10:40.377Z,10.87
2018-02-04T14:13:08.818Z,9.80
2018-02-04T14:15:37.649Z,10.45
2018-02-04T14:18:05.938Z,10.80
2018-02-04T14:20:34.198Z,10.93
2018-02-04T14:23:02.455Z,12.20
2018-02-04T14:25:31.471Z,9.70
2018-02-04T14:27:59.728Z,11.03
2018-02-04T14:30:28.006Z,10.02
2018-02-04T14:32:57.020Z,10.77
2018-02-04T14:35:25.269Z,9.50
2018-02-04T14:37:54.294Z,10.30
2018-02-04T14:40:22.550Z,8.27
2018-02-04T14:42:50.824Z,10.00
2018-02-04T14:45:19.077Z,10.63
2018-02-04T14:47:48.111Z,11.68
2018-02-04T14:50:16.367Z,10.82
2018-02-04T14:52:44.636Z,10.57
2018-02-04T14:55:13.667Z,10.60
2018-02-04T14:57:41.925Z,12.48
2018-02-04T15:00:10.183Z,12.30
2018-02-04T15:02:39.209Z,11.32
2018-02-04T15:05:07.468Z,13.65
2018-02-04T15:07:35.730Z,11.82
2018-02-04T15:10:03.991Z,11.95
2018-02-04T15:12:33.017Z,10.73
2018-02-04T15:15:01.282Z,11.93
2018-02-04T15:17:29.544Z,12.00
2018-02-04T15:19:58.571Z,11.80
2018-02-04T15:22:26.838Z,12.77
2018-02-04T15:24:55.097Z,12.35
2018-02-04T15:27:23.374Z,27.40
2018-02-04T15:29:52.393Z,19.45
2018-02-04T15:32:20.669Z,14.77
2018-02-04T15:34:48.938Z,12.20
2018-02-04T15:37:17.202Z,17.00
2018-02-04T15:39:45.484Z,16.23
2018-02-04T15:42:13.745Z,16.00
2018-02-04T15:44:42.010Z,13.40
2018-02-04T15:47:11.101Z,11.57
2018-02-04T15:49:40.168Z,12.60
2018-02-04T15:52:08.447Z,13.55
2018-02-04T15:54:36.730Z,14.27
2018-02-04T15:57:05.163Z,13.90
2018-02-04T15:59:33.437Z,14.07
2018-02-04T16:02:01.687Z,13.35
2018-02-04T16:04:29.961Z,11.38
2018-02-04T16:06:58.983Z,24.45
2018-02-04T16:09:27.289Z,16.52
2018-02-04T16:11:55.566Z,13.02
2018-02-04T16:14:23.830Z,11.77
2018-02-04T16:16:52.095Z,10.00
2018-02-04T16:19:20.352Z,10.35
2018-02-04T16:21:48.609Z,9.77
2018-02-04T16:24:17.641Z,11.35
2018-02-04T16:26:45.906Z,9.75
2018-02-04T16:29:14.166Z,9.65
2018-02-04T16:31:42.443Z,10.55
2018-02-04T16:34:10.708Z,10.13
2018-02-04T16:36:39.011Z,10.43
2018-02-04T16:39:07.308Z,10.13
2018-02-04T16:41:35.563Z,9.90
2018-02-04T16:44:03.825Z,9.60
2018-02-04T16:46:32.116Z,10.35
2018-02-04T16:49:00.402Z,10.65
2018-02-04T16:51:28.674Z,10.32
2018-02-04T16:53:56.999Z,10.43
2018-02-04T16:56:31.971Z,9.98
2018-02-04T16:59:00.226Z,11.35
2018-02-04T17:01:28.506Z,12.82
2018-02-04T17:03:57.524Z,10.77
2018-02-04T17:06:25.798Z,11.30
2018-02-04T17:08:54.055Z,11.02
2018-02-04T17:11:22.327Z,11.15
2018-02-04T17:13:50.586Z,11.00
2018-02-04T17:16:19.618Z,9.95
2018-02-04T17:18:48.222Z,8.85
2018-02-04T17:21:17.256Z,10.75
2018-02-04T17:23:46.282Z,15.15
2018-02-04T17:26:14.546Z,9.70
2018-02-04T17:28:42.808Z,12.13
2018-02-04T17:31:11.838Z,13.07
2018-02-04T17:33:40.107Z,11.50
2018-02-04T17:36:08.386Z,11.85
2018-02-04T17:38:36.698Z,9.82
2018-02-04T17:41:04.949Z,12.50
2018-02-04T17:43:33.982Z,12.23
2018-02-04T17:46:03.023Z,11.77
2018-02-04T17:48:31.290Z,12.45
2018-02-04T17:50:59.559Z,12.80
2018-02-04T17:53:27.822Z,12.60
2018-02-04T17:55:56.845Z,14.45
2018-02-04T17:58:25.122Z,12.20
2018-02-04T18:00:54.357Z,12.73
2018-02-04T18:03:22.614Z,13.57
2018-02-04T18:05:50.914Z,13.55
2018-02-04T18:08:19.167Z,15.13
2018-02-04T18:10:47.434Z,13.07
2018-02-04T18:13:15.702Z,13.20
2018-02-04T18:15:43.958Z,13.05
2018-02-04T18:18:12.298Z,12.43
2018-02-04T18:20:40.570Z,12.95
2018-02-04T18:23:08.924Z,12.77
2018-02-04T18:25:37.154Z,12.48
2018-02-04T18:28:05.426Z,12.68
2018-02-04T18:30:34.456Z,12.40
2018-02-04T18:33:02.727Z,14.68
2018-02-04T18:35:30.996Z,12.65
2018-02-04T18:37:59.263Z,13.32
2018-02-04T18:40:27.582Z,13.60
2018-02-04T18:42:55.832Z,13.02
2018-02-04T18:45:24.105Z,12.80
2018-02-04T18:47:52.359Z,13.52
2018-02-04T18:50:20.634Z,12.32
2018-02-04T18:52:48.922Z,12.65
2018-02-04T18:55:17.189Z,14.07
2018-02-04T18:57:45.502Z,14.20
2018-02-04T19:00:13.755Z,14.38
2018-02-04T19:02:42.008Z,13.13
2018-02-04T19:05:10.398Z,14.30
2018-02-04T19:07:38.676Z,13.68
2018-02-04T19:10:06.926Z,14.95
2018-02-04T19:12:35.956Z,15.05
2018-02-04T19:15:04.215Z,14.35
2018-02-04T19:17:32.537Z,14.25
2018-02-04T19:20:00.784Z,14.50
2018-02-04T19:22:29.097Z,14.65
2018-02-04T19:24:57.347Z,13.93
2018-02-04T19:27:25.609Z,14.75
2018-02-04T19:29:53.874Z,14.70
2018-02-04T19:32:22.147Z,14.20
2018-02-04T19:34:50.461Z,15.63
2018-02-04T19:37:18.721Z,15.55
2018-02-04T19:39:46.978Z,15.88
2018-02-04T19:42:15.259Z,16.20
2018-02-04T19:44:43.571Z,15.10
2018-02-04T19:47:11.894Z,16.15
2018-02-04T19:49:40.952Z,16.73
2018-02-04T19:52:10.071Z,15.55
2018-02-04T19:54:38.357Z,18.62
2018-02-04T19:57:07.377Z,16.85
2018-02-04T19:59:35.723Z,16.98
2018-02-04T20:02:03.937Z,17.80
2018-02-04T20:04:32.254Z,16.15
2018-02-04T20:07:00.524Z,16.17
2018-02-04T20:09:28.865Z,17.10
2018-02-04T20:11:57.129Z,18.55
2018-02-04T20:14:25.396Z,16.75
2018-02-04T20:16:53.655Z,14.48
2018-02-04T20:19:22.692Z,17.52
2018-02-04T20:21:50.962Z,16.67
2018-02-04T20:24:19.295Z,17.30
2018-02-04T20:26:54.430Z,16.65
2018-02-04T20:29:22.746Z,16.77
2018-02-04T20:31:51.089Z,14.48
2018-02-04T20:34:37.168Z,15.45
2018-02-04T20:37:05.438Z,15.20
2018-02-04T20:39:33.716Z,13.45
2018-02-04T20:42:02.025Z,14.38
2018-02-04T20:44:31.059Z,13.68
2018-02-04T20:46:59.332Z,14.20
2018-02-04T20:49:27.596Z,14.23
2018-02-04T20:51:55.904Z,14.48
2018-02-04T20:54:24.215Z,13.68
2018-02-04T20:56:53.276Z,14.00
2018-02-04T20:59:21.547Z,13.80
2018-02-04T21:01:49.806Z,15.18
2018-02-04T21:04:18.123Z,13.80
2018-02-04T21:06:46.385Z,12.37
2018-02-04T21:09:14.696Z,13.00
2018-02-04T21:11:43.731Z,14.95
2018-02-04T21:14:12.063Z,13.60
2018-02-04T21:16:41.138Z,13.02
2018-02-04T21:19:09.407Z,12.77
2018-02-04T21:21:37.666Z,12.07
2018-02-04T21:24:05.944Z,13.65
2018-02-04T21:26:35.025Z,11.90
2018-02-04T21:29:03.288Z,13.23
2018-02-04T21:31:31.551Z,13.93
2018-02-04T21:33:59.823Z,12.73
2018-02-04T21:36:28.138Z,14.63
2018-02-04T21:38:56.444Z,12.40
2018-02-04T21:41:24.745Z,11.77
2018-02-04T21:43:53.810Z,12.13
2018-02-04T21:46:22.067Z,12.88
2018-02-04T21:48:50.393Z,11.40
2018-02-04T21:51:19.456Z,10.88
2018-02-04T21:53:47.800Z,11.25
2018-02-04T21:56:16.073Z,13.55
2018-02-04T21:58:44.340Z,12.15
2018-02-04T22:01:12.602Z,13.05
2018-02-04T22:03:40.917Z,12.10
2018-02-04T22:06:09.193Z,10.95
2018-02-04T22:08:37.455Z,11.52
2018-02-04T22:11:05.732Z,12.20
2018-02-04T22:13:33.994Z,12.13
2018-02-04T22:16:02.266Z,10.95
2018-02-04T22:18:30.584Z,10.88
2018-02-04T22:20:58.816Z,13.05
2018-02-04T22:23:27.087Z,11.57
2018-02-04T22:25:55.362Z,13.43
2018-02-04T22:28:23.622Z,11.55
2018-02-04T22:30:51.913Z,12.65
2018-02-04T22:33:20.179Z,13.73
2018-02-04T22:35:48.442Z,13.00
2018-02-04T22:38:17.475Z,12.32
2018-02-04T22:40:45.744Z,11.80
2018-02-04T22:43:14.017Z,12.63
2018-02-04T22:45:42.280Z,11.07
2018-02-04T22:48:10.561Z,11.40
2018-02-04T22:50:38.826Z,11.43
2018-02-04T22:53:07.090Z,12.40
2018-02-04T22:55:36.132Z,11.25
2018-02-04T22:58:04.390Z,9.95
2018-02-04T23:00:32.657Z,11.15
2018-02-04T23:03:00.942Z,11.85
2018-02-04T23:05:29.250Z,12.30
2018-02-04T23:07:57.524Z,12.10
2018-02-04T23:10:26.556Z,11.43
2018-02-04T23:12:55.592Z,12.15
2018-02-04T23:15:23.850Z,12.60
2018-02-04T23:17:52.128Z,11.05
2018-02-04T23:20:20.418Z,12.90
2018-02-04T23:22:48.687Z,12.60
2018-02-04T23:25:16.948Z,12.48
2018-02-04T23:27:45.219Z,12.80
2018-02-04T23:30:13.478Z,11.75
2018-02-04T23:32:42.513Z,11.10
2018-02-04T23:35:10.786Z,11.75
2018-02-04T23:37:39.041Z,11.95
2018-02-04T23:40:07.310Z,11.00
2018-02-04T23:42:35.602Z,12.05
2018-02-04T23:45:03.849Z,10.93
2018-02-04T23:47:32.933Z,9.80
2018-02-04T23:50:01.197Z,9.73
2018-02-04T23:52:29.463Z,10.98
2018-02-04T23:54:57.725Z,11.30
2018-02-04T23:57:25.986Z,11.82
2018-02-04T23:59:54.250Z,12.45
